Time;durP1;ratioP1;P1;durP2;ratioP2;P2;SDS_P1;SDS_P2;PMS_P1;PMS_P2;Temp;Humidity;BMP_temperature;BMP_pressure;BME280_temperature;BME280_humidity;BME280_pressure;Samples;Min_cycle;Max_cycle;Signal;HPM_P1;HPM_P2
2024/04/21 00:02:00;;;;;;;9.67;9.07;;;5.00;99.90;;;;;;5255357;27;20241;-78
2024/04/21 00:04:26;;;;;;;9.57;8.97;;;5.00;99.90;;;;;;5285214;27;20343;-78
2024/04/21 00:06:54;;;;;;;9.73;9.13;;;5.00;99.90;;;;;;5255650;27;20245;-78
2024/04/21 00:09:21;;;;;;;9.60;9.00;;;5.00;99.90;;;;;;5256179;27;20243;-78
2024/04/21 00:11:50;;;;;;;9.70;9.10;;;5.00;99.90;;;;;;5253621;27;20246;-78
2024/04/21 00:14:18;;;;;;;9.80;9.20;;;5.00;99.90;;;;;;5256806;27;20342;-78
2024/04/21 00:16:47;;;;;;;9.90;9.30;;;5.00;99.90;;;;;;5250452;27;20281;-78
2024/04/21 00:19:13;;;;;;;10.03;9.43;;;5.00;99.90;;;;;;5279559;27;20247;-78
2024/04/21 00:21:41;;;;;;;10.03;9.33;;;5.00;99.90;;;;;;5273452;27;20345;-78
2024/04/21 00:24:07;;;;;;;9.73;9.13;;;5.00;99.90;;;;;;5253068;27;20290;-78
2024/04/21 00:26:35;;;;;;;9.50;8.90;;;5.00;99.90;;;;;;5257155;27;20242;-79
2024/04/21 00:29:04;;;;;;;9.60;9.00;;;5.00;99.90;;;;;;5249903;27;20784;-78
2024/04/21 00:31:35;;;;;;;9.80;9.10;;;5.00;99.90;;;;;;5253292;27;20539;-78
2024/04/21 00:34:01;;;;;;;9.70;9.10;;;4.90;99.90;;;;;;5251160;27;20243;-79
2024/04/21 00:36:30;;;;;;;9.83;9.23;;;4.90;99.90;;;;;;5253834;27;20243;-78
2024/04/21 00:38:55;;;;;;;10.10;9.40;;;5.00;99.90;;;;;;5247081;27;20285;-78
2024/04/21 00:41:25;;;;;;;9.40;8.87;;;4.90;99.90;;;;;;5255843;27;20247;-78
2024/04/21 00:43:51;;;;;;;9.70;9.10;;;4.90;99.90;;;;;;5249799;27;20246;-78
2024/04/21 00:46:19;;;;;;;9.50;8.90;;;5.00;99.90;;;;;;5258684;27;20281;-78
2024/04/21 00:48:48;;;;;;;9.73;9.13;;;4.90;99.90;;;;;;5247962;27;20369;-78
2024/04/21 00:51:18;;;;;;;9.53;8.93;;;5.00;99.90;;;;;;5243243;27;20313;-78
2024/04/21 00:53:44;;;;;;;9.77;9.17;;;5.00;99.90;;;;;;5249665;27;20277;-79
2024/04/21 00:56:13;;;;;;;9.60;9.00;;;5.00;99.90;;;;;;5243254;27;20242;-79
2024/04/21 00:58:39;;;;;;;9.87;9.27;;;5.00;99.90;;;;;;5245657;27;20400;-78
2024/04/21 01:01:07;;;;;;;9.77;9.17;;;5.10;99.90;;;;;;5253189;27;20248;-79
2024/04/21 01:03:35;;;;;;;9.50;8.90;;;5.00;99.90;;;;;;5255363;27;20658;-79
2024/04/21 01:06:06;;;;;;;9.73;9.13;;;5.00;99.90;;;;;;5251226;27;20250;-79
2024/04/21 01:08:32;;;;;;;9.77;9.07;;;5.00;99.90;;;;;;5280516;27;20247;-78
2024/04/21 01:11:01;;;;;;;9.97;9.27;;;5.00;99.90;;;;;;5247067;27;20338;-78
2024/04/21 01:13:26;;;;;;;9.80;9.20;;;5.10;99.90;;;;;;5251904;27;20283;-79
2024/04/21 01:15:56;;;;;;;9.67;9.17;;;5.10;99.90;;;;;;5246401;27;20247;-78
2024/04/21 01:18:21;;;;;;;9.83;9.23;;;5.10;99.90;;;;;;5250657;27;20726;-78
2024/04/21 01:20:50;;;;;;;9.63;9.03;;;5.10;99.90;;;;;;5253980;27;20261;-78
2024/04/21 01:23:19;;;;;;;9.80;9.20;;;5.00;99.90;;;;;;5256279;27;20246;-78
2024/04/21 01:25:48;;;;;;;9.80;9.20;;;5.00;99.90;;;;;;5255285;27;20597;-78
2024/04/21 01:28:14;;;;;;;9.87;9.17;;;5.00;99.90;;;;;;5280335;27;20239;-78
2024/04/21 01:30:42;;;;;;;9.60;9.00;;;5.00;99.90;;;;;;5254817;27;20248;-79
2024/04/21 01:33:08;;;;;;;9.70;9.10;;;5.00;99.90;;;;;;5250900;27;20275;-78
2024/04/21 01:35:37;;;;;;;10.47;9.67;;;5.00;99.90;;;;;;5260795;27;20254;-78
2024/04/21 01:38:03;;;;;;;9.43;8.87;;;5.00;99.90;;;;;;5245029;27;20276;-78
2024/04/21 01:40:34;;;;;;;9.70;9.10;;;4.90;99.90;;;;;;5239994;27;20262;-78
2024/04/21 01:43:00;;;;;;;9.40;8.90;;;4.90;99.90;;;;;;5259677;27;20790;-78
2024/04/21 01:45:29;;;;;;;10.20;9.60;;;4.90;99.90;;;;;;5258350;27;20278;-78
2024/04/21 01:47:55;;;;;;;9.90;9.30;;;4.80;99.90;;;;;;5258125;27;20233;-78
2024/04/21 01:50:24;;;;;;;9.80;9.20;;;4.80;99.90;;;;;;5284900;27;20285;-78
2024/04/21 01:52:50;;;;;;;10.10;9.50;;;4.70;99.90;;;;;;5281896;27;20380;-78
2024/04/21 01:55:18;;;;;;;10.10;9.40;;;4.80;99.90;;;;;;5283558;27;20395;-78
2024/04/21 01:57:51;;;;;;;9.83;9.23;;;4.70;99.90;;;;;;5250375;27;20725;-78
2024/04/21 02:00:19;;;;;;;9.60;9.10;;;4.70;99.90;;;;;;5254326;27;20255;-78
2024/04/21 02:02:45;;;;;;;9.80;9.20;;;4.70;99.90;;;;;;5246307;27;20246;-78
2024/04/21 02:05:14;;;;;;;9.57;9.07;;;4.70;99.90;;;;;;5254141;27;20728;-78
2024/04/21 02:07:40;;;;;;;9.63;9.10;;;4.60;99.90;;;;;;5256589;27;20247;-78
2024/04/21 02:10:09;;;;;;;10.30;9.70;;;4.60;99.90;;;;;;5255481;27;20238;-78
2024/04/21 02:12:35;;;;;;;10.20;9.40;;;4.60;99.90;;;;;;5257437;27;20243;-78
2024/04/21 02:15:07;;;;;;;9.77;9.17;;;4.60;99.90;;;;;;5253663;27;20647;-78
2024/04/21 02:17:32;;;;;;;9.70;9.10;;;4.60;99.90;;;;;;5255175;27;20797;-78
2024/04/21 02:20:01;;;;;;;9.40;8.90;;;4.60;99.90;;;;;;5248868;27;20249;-79
2024/04/21 02:22:27;;;;;;;9.87;9.27;;;4.70;99.90;;;;;;5253165;27;20273;-78
2024/04/21 02:24:55;;;;;;;9.50;9.00;;;4.60;99.90;;;;;;5261722;27;20684;-78
2024/04/21 02:27:21;;;;;;;9.63;9.03;;;4.60;99.90;;;;;;5245666;27;20345;-78
2024/04/21 02:29:50;;;;;;;9.67;9.07;;;4.60;99.90;;;;;;5274638;27;20255;-78
2024/04/21 02:32:18;;;;;;;10.10;9.50;;;4.60;99.90;;;;;;5278409;27;20246;-78
2024/04/21 02:34:47;;;;;;;10.03;9.30;;;4.60;99.90;;;;;;5282661;27;20258;-78
2024/04/21 02:37:13;;;;;;;9.73;9.13;;;4.60;99.90;;;;;;5250931;27;20359;-78
2024/04/21 02:39:41;;;;;;;10.37;9.50;;;4.70;99.90;;;;;;5251039;27;20253;-78
2024/04/21 02:42:07;;;;;;;10.43;9.47;;;4.70;99.90;;;;;;5272060;27;20272;-78
2024/04/21 02:44:35;;;;;;;10.07;9.40;;;4.60;99.90;;;;;;5257126;27;20234;-78
2024/04/21 02:47:01;;;;;;;9.60;9.10;;;4.60;99.90;;;;;;5244974;27;20772;-78
2024/04/21 02:49:32;;;;;;;9.80;9.20;;;4.60;99.90;;;;;;5253063;27;20305;-77
2024/04/21 02:51:58;;;;;;;10.00;9.40;;;4.60;99.90;;;;;;5249323;27;20641;-78
2024/04/21 02:54:27;;;;;;;10.00;9.30;;;4.60;99.90;;;;;;5283222;27;20342;-78
2024/04/21 02:56:53;;;;;;;10.47;9.77;;;4.60;99.90;;;;;;5251878;27;20257;-80
2024/04/21 02:59:22;;;;;;;10.50;9.70;;;4.50;99.90;;;;;;5246866;27;20737;-80
2024/04/21 03:01:47;;;;;;;10.17;9.27;;;4.50;99.90;;;;;;5252238;27;20251;-80
2024/04/21 03:04:18;;;;;;;10.33;9.73;;;4.50;99.90;;;;;;5240523;27;20274;-79
2024/04/21 03:06:48;;;;;;;10.33;9.73;;;4.50;99.90;;;;;;5240971;27;20784;-77
2024/04/21 03:09:16;;;;;;;10.30;9.60;;;4.50;99.90;;;;;;5254199;27;20254;-78
2024/04/21 03:11:45;;;;;;;9.63;9.03;;;4.50;99.90;;;;;;5260710;27;20276;-78
2024/04/21 03:14:15;;;;;;;9.90;9.30;;;4.50;99.90;;;;;;5250320;27;20249;-78
2024/04/21 03:16:41;;;;;;;10.10;9.50;;;4.50;99.90;;;;;;5251029;27;20241;-77
2024/04/21 03:19:10;;;;;;;10.60;9.80;;;4.50;99.90;;;;;;5272420;27;20741;-78
2024/04/21 03:21:38;;;;;;;10.47;9.77;;;4.50;99.90;;;;;;5242545;27;20251;-78
2024/04/21 03:24:07;;;;;;;10.40;9.63;;;4.40;99.90;;;;;;5240325;27;20588;-78
2024/04/21 03:26:36;;;;;;;10.30;9.70;;;4.50;99.90;;;;;;5261208;27;20247;-78
2024/04/21 03:29:01;;;;;;;10.70;10.00;;;4.40;99.90;;;;;;5250384;27;20598;-78
2024/04/21 03:31:30;;;;;;;10.00;9.27;;;4.50;99.90;;;;;;5272200;27;20279;-78
2024/04/21 03:33:56;;;;;;;10.50;9.80;;;4.50;99.90;;;;;;5272241;27;20246;-78
2024/04/21 03:36:24;;;;;;;10.30;9.60;;;4.60;99.90;;;;;;5245873;27;20376;-78
2024/04/21 03:38:52;;;;;;;10.50;9.70;;;4.60;99.90;;;;;;5247146;27;20242;-78
2024/04/21 03:41:23;;;;;;;10.50;9.80;;;4.60;99.90;;;;;;5261753;27;20275;-79
2024/04/21 03:43:52;;;;;;;10.50;9.80;;;4.70;99.90;;;;;;5254391;27;20670;-78
2024/04/21 03:46:18;;;;;;;11.10;10.40;;;4.70;99.90;;;;;;5246539;27;20283;-78
2024/04/21 03:48:46;;;;;;;10.60;10.00;;;4.80;99.90;;;;;;5243695;27;20234;-78
2024/04/21 03:51:12;;;;;;;10.60;10.00;;;4.80;99.90;;;;;;5246594;27;20766;-78
2024/04/21 03:53:40;;;;;;;10.60;9.80;;;4.80;99.90;;;;;;5256397;27;20238;-78
2024/04/21 03:56:06;;;;;;;10.40;9.77;;;4.80;99.90;;;;;;5251346;27;20259;-78
2024/04/21 03:58:37;;;;;;;10.90;10.20;;;4.80;99.90;;;;;;5254906;27;20861;-78
2024/04/21 04:01:03;;;;;;;11.20;10.50;;;4.80;99.90;;;;;;5250061;27;20535;-79
2024/04/21 04:03:32;;;;;;;10.73;10.03;;;4.90;99.90;;;;;;5266585;27;20303;-78
2024/04/21 04:05:58;;;;;;;10.87;10.07;;;4.90;99.90;;;;;;5266201;27;21063;-81
2024/04/21 04:08:26;;;;;;;10.70;10.00;;;4.90;99.90;;;;;;5242964;27;20338;-80
2024/04/21 04:10:52;;;;;;;10.97;10.33;;;4.90;99.90;;;;;;5255540;27;20251;-79
2024/04/21 04:13:23;;;;;;;11.30;10.60;;;4.90;99.90;;;;;;5254299;27;20299;-83
2024/04/21 04:15:52;;;;;;;11.23;10.40;;;4.90;99.90;;;;;;5254595;27;20306;-81
2024/04/21 04:18:20;;;;;;;11.00;10.30;;;4.90;99.90;;;;;;5249939;27;20246;-78
2024/04/21 04:20:46;;;;;;;11.80;10.93;;;4.80;99.90;;;;;;5242522;27;20249;-79
2024/04/21 04:23:15;;;;;;;12.10;11.10;;;4.80;99.90;;;;;;5250577;27;20276;-79
2024/04/21 04:25:42;;;;;;;11.80;10.80;;;4.70;99.90;;;;;;5240374;27;20258;-82
2024/04/21 04:28:13;;;;;;;11.47;10.67;;;4.70;99.90;;;;;;5251898;27;20289;-85
2024/04/21 04:30:40;;;;;;;11.40;10.63;;;4.70;99.90;;;;;;5244813;27;20252;-83
2024/04/21 04:33:11;;;;;;;11.47;10.67;;;4.60;99.90;;;;;;5244709;27;20745;-82
2024/04/21 04:35:37;;;;;;;11.27;10.33;;;4.50;99.90;;;;;;5279791;27;20247;-83
2024/04/21 04:38:06;;;;;;;11.17;10.47;;;4.50;99.90;;;;;;5269884;27;20250;-82
2024/04/21 04:40:32;;;;;;;10.20;9.60;;;4.40;99.90;;;;;;5245823;27;20254;-83
2024/04/21 04:43:01;;;;;;;10.90;10.20;;;4.40;99.90;;;;;;5245278;27;20303;-83
2024/04/21 04:45:27;;;;;;;10.90;10.13;;;4.30;99.90;;;;;;5235111;27;20247;-82
2024/04/21 04:47:55;;;;;;;10.90;10.20;;;4.30;99.90;;;;;;5262593;27;20263;-82
2024/04/21 04:50:24;;;;;;;10.70;10.10;;;4.30;99.90;;;;;;5254485;27;20243;-82
2024/04/21 04:52:56;;;;;;;10.60;10.00;;;4.20;99.90;;;;;;5245336;27;20773;-82
2024/04/21 04:55:22;;;;;;;10.27;9.60;;;4.20;99.90;;;;;;5259839;27;20291;-84
2024/04/21 04:57:50;;;;;;;10.30;9.60;;;4.30;99.90;;;;;;5257925;27;20734;-84
2024/04/21 05:00:16;;;;;;;10.70;10.10;;;4.30;99.90;;;;;;5257728;27;20291;-81
2024/04/21 05:02:45;;;;;;;10.63;9.93;;;4.30;99.90;;;;;;5256818;27;20250;-83
2024/04/21 05:05:10;;;;;;;10.30;9.70;;;4.30;99.90;;;;;;5249461;27;20238;-83
2024/04/21 05:07:41;;;;;;;10.50;9.83;;;4.20;99.90;;;;;;5238930;27;20296;-82
2024/04/21 05:10:07;;;;;;;10.73;9.93;;;4.20;99.90;;;;;;5240319;27;20268;-81
2024/04/21 05:12:36;;;;;;;10.73;10.03;;;4.10;99.90;;;;;;5245083;27;20249;-83
2024/04/21 05:15:02;;;;;;;11.20;10.50;;;4.10;99.90;;;;;;5246978;27;20272;-82
2024/04/21 05:17:31;;;;;;;11.20;10.40;;;4.00;99.90;;;;;;5250404;27;20292;-83
2024/04/21 05:19:56;;;;;;;11.10;10.40;;;4.00;99.90;;;;;;5246497;27;20242;-83
2024/04/21 05:22:25;;;;;;;11.30;10.50;;;3.80;99.90;;;;;;5247575;27;20720;-83
2024/04/21 05:24:53;;;;;;;11.60;10.90;;;3.80;99.90;;;;;;5260025;27;20279;-83
2024/04/21 05:27:22;;;;;;;11.17;10.43;;;3.70;99.90;;;;;;5249281;27;20297;-84
2024/04/21 05:29:48;;;;;;;11.17;10.37;;;3.70;99.90;;;;;;5244537;27;20254;-82
2024/04/21 05:32:16;;;;;;;10.80;10.20;;;3.70;99.90;;;;;;5245595;27;20246;-87
2024/04/21 05:34:45;;;;;;;10.63;9.93;;;3.70;99.90;;;;;;5248297;27;20249;-83
2024/04/21 05:37:13;;;;;;;10.30;9.70;;;3.70;99.90;;;;;;5252708;27;20683;-82
2024/04/21 05:39:39;;;;;;;10.57;9.87;;;3.70;99.90;;;;;;5265144;27;20247;-84
2024/04/21 05:42:11;;;;;;;10.40;9.70;;;3.80;99.90;;;;;;5241180;27;20298;-84
2024/04/21 05:44:36;;;;;;;10.50;9.80;;;3.80;99.90;;;;;;5285587;27;20276;-84
2024/04/21 05:47:05;;;;;;;10.70;10.00;;;3.90;99.90;;;;;;5247161;27;20589;-83
2024/04/21 05:49:31;;;;;;;10.70;10.00;;;3.90;99.90;;;;;;5242427;27;20318;-82
2024/04/21 05:51:59;;;;;;;10.87;10.07;;;3.80;99.90;;;;;;5248554;27;20733;-83
2024/04/21 05:54:25;;;;;;;11.23;10.53;;;3.70;99.90;;;;;;5260139;27;20350;-84
2024/04/21 05:56:54;;;;;;;12.50;11.40;;;3.70;99.90;;;;;;5245540;27;20250;-82
2024/04/21 05:59:24;;;;;;;11.70;10.90;;;3.70;99.90;;;;;;5262829;27;20287;-77
2024/04/21 06:01:52;;;;;;;11.50;10.70;;;3.60;99.90;;;;;;5247151;27;20289;-81
2024/04/21 06:04:18;;;;;;;12.37;11.33;;;3.60;99.90;;;;;;5245723;27;20236;-79
2024/04/21 06:06:47;;;;;;;11.83;10.87;;;3.50;99.90;;;;;;5260192;27;20284;-81
2024/04/21 06:09:13;;;;;;;11.47;10.50;;;3.50;99.90;;;;;;5250867;27;20245;-86
2024/04/21 06:11:41;;;;;;;10.17;9.57;;;3.40;99.90;;;;;;5244317;27;20258;-82
2024/04/21 06:14:10;;;;;;;10.60;9.80;;;3.30;99.90;;;;;;5256416;27;20587;-83
2024/04/21 06:16:41;;;;;;;11.30;10.20;;;3.20;99.90;;;;;;5260559;27;20256;-85
2024/04/21 06:19:09;;;;;;;11.00;10.20;;;3.20;99.90;;;;;;5247176;27;20257;-85
2024/04/21 06:21:38;;;;;;;10.57;9.73;;;3.20;99.90;;;;;;5252822;27;20951;-86
2024/04/21 06:24:04;;;;;;;10.80;10.10;;;3.20;99.90;;;;;;5238047;27;20316;-83
2024/04/21 06:26:33;;;;;;;10.20;9.60;;;3.30;99.90;;;;;;5257770;27;20303;-82
2024/04/21 06:28:59;;;;;;;10.53;9.93;;;3.30;99.90;;;;;;5245197;27;20285;-83
2024/04/21 06:31:27;;;;;;;10.67;9.97;;;3.40;99.90;;;;;;5264440;27;20250;-82
2024/04/21 06:33:55;;;;;;;10.40;9.80;;;3.40;99.90;;;;;;5248080;27;20238;-87
2024/04/21 06:36:28;;;;;;;11.27;10.57;;;3.40;99.90;;;;;;5239772;27;20272;-87
2024/04/21 06:39:08;;;;;;;10.50;9.80;;;3.40;99.90;;;;;;5249061;27;20245;-86
2024/04/21 06:41:39;;;;;;;11.10;10.17;;;3.50;99.90;;;;;;5249712;27;20299;-80
2024/04/21 06:44:05;;;;;;;11.23;10.43;;;3.60;99.90;;;;;;5253579;27;20296;-80
2024/04/21 06:46:33;;;;;;;11.53;10.63;;;3.70;99.90;;;;;;5243944;27;20353;-83
2024/04/21 06:49:02;;;;;;;10.77;10.17;;;3.70;99.90;;;;;;5252333;27;20229;-82
2024/04/21 06:51:33;;;;;;;11.37;10.47;;;3.90;99.90;;;;;;5252867;27;20608;-84
2024/04/21 06:53:59;;;;;;;11.57;10.67;;;4.10;99.90;;;;;;5251485;27;20245;-79
2024/04/21 06:56:28;;;;;;;11.97;10.73;;;4.20;99.90;;;;;;5246283;27;20288;-82
2024/04/21 06:58:53;;;;;;;10.97;10.30;;;4.20;99.90;;;;;;5253996;27;20235;-80
2024/04/21 07:01:22;;;;;;;11.70;10.83;;;4.30;99.90;;;;;;5290113;27;20780;-80
2024/04/21 07:03:48;;;;;;;13.03;12.00;;;4.30;99.90;;;;;;5276343;27;20622;-81
2024/04/21 07:06:19;;;;;;;12.40;11.50;;;4.40;99.90;;;;;;5251249;27;20294;-81
2024/04/21 07:08:45;;;;;;;12.37;11.47;;;4.40;99.90;;;;;;5245182;27;20333;-81
2024/04/21 07:11:13;;;;;;;12.93;12.13;;;4.40;99.90;;;;;;5261038;27;20242;-81
2024/04/21 07:13:39;;;;;;;12.77;11.77;;;4.50;99.90;;;;;;5248812;27;20239;-81
2024/04/21 07:16:08;;;;;;;13.40;12.50;;;4.50;99.90;;;;;;5280676;27;20287;-82
2024/04/21 07:18:33;;;;;;;12.77;11.97;;;4.50;99.90;;;;;;5247176;27;20285;-80
2024/04/21 07:21:03;;;;;;;12.87;11.93;;;4.50;99.90;;;;;;5252387;27;20634;-80
2024/04/21 07:23:31;;;;;;;12.27;11.13;;;4.50;99.90;;;;;;5262107;27;20784;-81
2024/04/21 07:26:00;;;;;;;11.93;11.13;;;4.60;99.90;;;;;;5248070;27;20246;-81
2024/04/21 07:28:26;;;;;;;12.17;11.10;;;4.70;99.90;;;;;;5249325;27;20238;-81
2024/04/21 07:30:54;;;;;;;11.67;10.80;;;4.90;99.90;;;;;;5244848;27;20281;-81
2024/04/21 07:33:20;;;;;;;11.50;10.70;;;5.00;99.90;;;;;;5251117;27;20376;-81
2024/04/21 07:35:48;;;;;;;11.50;10.60;;;5.10;99.90;;;;;;5245276;27;20234;-81
2024/04/21 07:38:14;;;;;;;12.77;11.77;;;5.20;99.90;;;;;;5248268;27;20786;-81
2024/04/21 07:40:45;;;;;;;11.10;10.23;;;5.40;99.90;;;;;;5251563;27;20246;-83
2024/04/21 07:43:11;;;;;;;11.63;10.93;;;5.50;99.90;;;;;;5256006;27;20287;-81
2024/04/21 07:45:40;;;;;;;10.63;10.03;;;5.60;99.90;;;;;;5244378;27;20334;-80
2024/04/21 07:48:06;;;;;;;10.80;10.03;;;5.70;99.90;;;;;;5246303;27;20261;-80
2024/04/21 07:50:36;;;;;;;11.10;10.40;;;5.70;99.90;;;;;;5261325;27;20342;-77
2024/04/21 07:53:02;;;;;;;10.97;10.17;;;5.70;99.90;;;;;;5245733;27;20361;-81
2024/04/21 07:55:31;;;;;;;10.97;10.17;;;5.60;99.90;;;;;;5250489;27;20319;-80
2024/04/21 07:58:01;;;;;;;11.83;10.90;;;5.70;99.90;;;;;;5241282;27;20248;-80
2024/04/21 08:00:30;;;;;;;11.50;10.80;;;5.70;99.90;;;;;;5239723;27;20263;-80
2024/04/21 08:02:55;;;;;;;10.87;10.17;;;5.70;99.90;;;;;;5241294;27;20748;-80
2024/04/21 08:05:24;;;;;;;11.80;10.90;;;5.70;99.90;;;;;;5243494;27;20299;-80
2024/04/21 08:07:50;;;;;;;10.77;10.00;;;5.70;99.90;;;;;;5233987;27;20252;-80
2024/04/21 08:10:18;;;;;;;10.90;10.20;;;5.70;99.90;;;;;;5238705;27;20257;-80
2024/04/21 08:12:45;;;;;;;11.50;10.70;;;5.70;99.90;;;;;;5259601;27;20268;-80
2024/04/21 08:15:16;;;;;;;11.07;10.37;;;5.70;99.90;;;;;;5250861;27;20748;-80
2024/04/21 08:17:42;;;;;;;11.03;10.33;;;5.80;99.90;;;;;;5252661;27;20965;-80
2024/04/21 08:20:11;;;;;;;11.40;10.60;;;5.90;99.90;;;;;;5234543;27;20749;-79
2024/04/21 08:22:37;;;;;;;11.53;10.73;;;6.00;99.90;;;;;;5242377;27;20868;-80
2024/04/21 08:25:06;;;;;;;11.40;10.60;;;6.10;99.90;;;;;;5287180;27;20261;-80
2024/04/21 08:27:32;;;;;;;11.47;10.57;;;6.30;99.90;;;;;;5241786;27;20595;-80
2024/04/21 08:30:00;;;;;;;11.13;10.27;;;6.50;99.90;;;;;;5240481;27;20305;-79
2024/04/21 08:32:32;;;;;;;11.90;10.97;;;6.70;99.90;;;;;;5241860;27;20276;-79
2024/04/21 08:35:00;;;;;;;11.23;10.33;;;6.80;99.90;;;;;;5242747;27;20272;-80
2024/04/21 08:37:26;;;;;;;6.67;5.70;;;7.00;99.90;;;;;;5290083;27;20244;-80
2024/04/21 08:39:54;;;;;;;6.47;5.97;;;6.90;99.90;;;;;;5243309;27;20315;-79
2024/04/21 08:42:22;;;;;;;7.37;6.70;;;7.00;99.90;;;;;;5248184;27;20285;-80
2024/04/21 08:44:52;;;;;;;6.90;6.20;;;7.00;99.90;;;;;;5256645;27;20655;-80
2024/04/21 08:47:18;;;;;;;6.43;5.27;;;7.00;99.90;;;;;;5255301;27;20249;-79
2024/04/21 08:49:52;;;;;;;7.13;5.00;;;7.00;99.90;;;;;;5252412;27;20268;-80
2024/04/21 08:52:21;;;;;;;9.60;8.73;;;7.00;99.90;;;;;;5255112;27;20580;-78
2024/04/21 08:54:50;;;;;;;9.80;9.00;;;7.00;99.90;;;;;;5243366;27;20316;-80
2024/04/21 08:57:18;;;;;;;9.23;8.40;;;7.10;99.90;;;;;;5259416;27;20241;-80
2024/04/21 08:59:48;;;;;;;7.80;7.10;;;7.10;99.90;;;;;;5244733;27;20351;-79
2024/04/21 09:02:13;;;;;;;9.47;8.73;;;7.10;99.90;;;;;;5244410;27;20248;-82
2024/04/21 09:04:57;;;;;;;9.60;8.90;;;7.20;99.90;;;;;;5249854;27;20236;-79
2024/04/21 09:07:24;;;;;;;9.67;8.77;;;7.20;99.90;;;;;;5280724;27;20280;-80
2024/04/21 09:09:53;;;;;;;10.80;9.70;;;7.30;99.90;;;;;;5243307;27;20621;-80
2024/04/21 09:12:19;;;;;;;10.33;9.53;;;7.40;99.90;;;;;;5255629;27;20238;-80
2024/04/21 09:14:48;;;;;;;9.47;8.70;;;7.50;99.90;;;;;;5251771;27;20582;-80
2024/04/21 09:17:17;;;;;;;9.47;8.77;;;7.50;99.90;;;;;;5243414;27;20276;-85
2024/04/21 09:19:45;;;;;;;9.00;8.30;;;7.50;99.90;;;;;;5249910;27;20734;-80
2024/04/21 09:22:14;;;;;;;8.27;7.47;;;7.60;99.90;;;;;;5256451;27;20238;-83
2024/04/21 09:24:43;;;;;;;5.83;5.33;;;7.80;99.90;;;;;;5248857;27;20277;-82
2024/04/21 09:27:09;;;;;;;11.20;5.50;;;7.90;99.90;;;;;;5249903;27;20803;-83
2024/04/21 09:29:37;;;;;;;9.70;8.90;;;8.00;99.90;;;;;;5252824;27;20350;-80
2024/04/21 09:32:05;;;;;;;9.37;8.57;;;8.10;99.90;;;;;;5254012;27;20352;-79
2024/04/21 09:34:34;;;;;;;10.37;8.53;;;8.20;99.90;;;;;;5249177;27;20293;-80
2024/04/21 09:37:01;;;;;;;4.40;3.80;;;8.40;99.90;;;;;;5252274;27;20242;-80
2024/04/21 09:39:33;;;;;;;5.10;2.93;;;8.50;99.90;;;;;;5242106;27;20296;-79
2024/04/21 09:42:01;;;;;;;4.00;2.80;;;8.80;99.90;;;;;;5250761;27;20302;-80
2024/04/21 09:44:30;;;;;;;8.93;8.23;;;9.20;99.90;;;;;;5257781;27;20290;-78
2024/04/21 09:46:57;;;;;;;9.30;8.33;;;9.40;99.90;;;;;;5253361;27;20236;-81
2024/04/21 09:49:28;;;;;;;8.70;7.80;;;9.70;99.90;;;;;;5246333;27;20708;-79
2024/04/21 09:51:56;;;;;;;9.40;8.50;;;9.80;99.90;;;;;;5253154;27;20280;-80
2024/04/21 09:54:27;;;;;;;9.20;8.50;;;9.70;99.90;;;;;;5254124;27;20340;-80
2024/04/21 09:57:04;;;;;;;9.17;8.37;;;9.60;99.90;;;;;;5244054;27;20250;-79
2024/04/21 09:59:33;;;;;;;9.10;8.23;;;9.60;99.90;;;;;;5249128;27;20240;-85
2024/04/21 10:02:00;;;;;;;8.40;7.80;;;9.40;99.90;;;;;;5249923;27;20237;-86
2024/04/21 10:04:32;;;;;;;8.40;7.80;;;9.30;99.90;;;;;;5246984;27;20320;-86
2024/04/21 10:07:00;;;;;;;8.83;8.10;;;9.10;99.90;;;;;;5247508;27;21158;-85
2024/04/21 10:09:28;;;;;;;8.90;8.10;;;8.90;99.90;;;;;;5248423;27;20243;-85
2024/04/21 10:11:59;;;;;;;8.30;7.70;;;9.00;99.90;;;;;;5249312;27;20240;-86
2024/04/21 10:14:25;;;;;;;9.17;8.47;;;9.00;99.90;;;;;;5281178;27;20304;-86
2024/04/21 10:16:54;;;;;;;8.93;8.13;;;9.00;99.90;;;;;;5260063;27;20320;-86
2024/04/21 10:19:22;;;;;;;8.97;8.20;;;9.00;99.90;;;;;;5247426;27;20772;-86
2024/04/21 10:21:50;;;;;;;9.20;8.40;;;9.20;99.90;;;;;;5259584;27;20247;-87
2024/04/21 10:24:18;;;;;;;8.63;7.93;;;8.90;99.90;;;;;;5251979;27;20237;-79
2024/04/21 10:26:47;;;;;;;9.33;8.37;;;9.00;99.90;;;;;;5249853;27;20251;-81
2024/04/21 10:29:15;;;;;;;8.90;8.20;;;8.80;99.90;;;;;;5233761;27;20265;-84
2024/04/21 10:31:44;;;;;;;8.67;8.07;;;8.70;99.90;;;;;;5234480;27;20284;-80
2024/04/21 10:34:10;;;;;;;9.90;8.07;;;8.80;99.90;;;;;;5241427;27;20264;-85
2024/04/21 10:36:42;;;;;;;8.43;7.67;;;8.60;99.90;;;;;;5239791;27;20373;-84
2024/04/21 10:39:08;;;;;;;8.90;8.10;;;8.70;99.90;;;;;;5257838;27;20251;-83
2024/04/21 10:41:45;;;;;;;8.37;7.77;;;8.90;99.90;;;;;;5243714;27;20761;-84
2024/04/21 10:44:11;;;;;;;8.67;7.97;;;9.00;99.90;;;;;;5236079;27;20248;-84
2024/04/21 10:46:42;;;;;;;8.60;7.80;;;9.10;99.90;;;;;;5245610;27;20244;-82
2024/04/21 10:49:08;;;;;;;8.87;8.00;;;9.20;99.90;;;;;;5239978;27;20628;-80
2024/04/21 10:51:37;;;;;;;8.80;8.00;;;9.30;99.90;;;;;;5244823;27;20248;-80
2024/04/21 10:54:04;;;;;;;7.90;7.30;;;9.30;99.90;;;;;;5246793;27;20351;-81
2024/04/21 10:56:34;;;;;;;8.60;7.90;;;9.30;99.90;;;;;;5243595;27;20248;-78
2024/04/21 10:59:00;;;;;;;8.90;8.10;;;9.30;99.90;;;;;;5254481;27;20278;-83
2024/04/21 11:01:29;;;;;;;8.73;8.03;;;9.40;99.90;;;;;;5248107;27;20250;-83
2024/04/21 11:04:00;;;;;;;8.20;7.60;;;9.50;99.90;;;;;;5248963;27;20289;-83
2024/04/21 11:06:29;;;;;;;8.33;7.57;;;9.60;99.90;;;;;;5252185;27;20592;-82
2024/04/21 11:08:55;;;;;;;8.07;7.30;;;9.60;99.90;;;;;;5223890;27;20250;-84
2024/04/21 11:11:24;;;;;;;8.60;7.87;;;9.60;99.90;;;;;;5246526;27;20625;-80
2024/04/21 11:13:50;;;;;;;8.43;7.77;;;9.50;99.90;;;;;;5250241;27;20249;-83
2024/04/21 11:16:19;;;;;;;8.57;7.87;;;9.00;99.90;;;;;;5257495;27;20304;-83
2024/04/21 11:18:46;;;;;;;8.53;7.90;;;9.00;99.90;;;;;;5252762;27;20284;-82
2024/04/21 11:21:17;;;;;;;9.53;8.77;;;9.00;99.90;;;;;;5256596;27;20256;-84
2024/04/21 11:23:44;;;;;;;8.73;8.03;;;9.00;99.90;;;;;;5254555;27;20317;-83
2024/04/21 11:26:13;;;;;;;8.70;8.10;;;9.20;99.90;;;;;;5256056;27;20239;-82
2024/04/21 11:28:39;;;;;;;9.10;8.37;;;9.30;99.90;;;;;;5248540;27;20239;-79
2024/04/21 11:31:08;;;;;;;8.43;7.73;;;9.30;99.90;;;;;;5281731;27;20691;-80
2024/04/21 11:33:35;;;;;;;8.80;8.20;;;9.40;99.90;;;;;;5256267;27;20252;-82
2024/04/21 11:36:04;;;;;;;8.63;7.83;;;9.60;99.90;;;;;;5252239;27;20252;-78
2024/04/21 11:38:36;;;;;;;8.53;7.37;;;9.80;99.90;;;;;;5249208;27;20240;-86
2024/04/21 11:41:15;;;;;;;9.10;8.40;;;10.00;99.90;;;;;;5258753;27;20268;-86
2024/04/21 11:43:50;;;;;;;8.53;7.67;;;10.40;99.90;;;;;;5249075;27;20251;-76
2024/04/21 11:46:18;;;;;;;8.43;7.70;;;10.70;99.90;;;;;;5247866;27;20242;-79
2024/04/21 11:48:51;;;;;;;7.87;7.33;;;10.70;99.90;;;;;;5251074;27;20295;-78
2024/04/21 11:51:19;;;;;;;8.30;7.80;;;10.70;99.90;;;;;;5270349;27;20254;-78
2024/04/21 11:53:48;;;;;;;8.13;7.30;;;10.60;99.90;;;;;;5248628;27;20242;-78
2024/04/21 11:56:16;;;;;;;7.77;7.07;;;10.60;99.90;;;;;;5247826;27;20743;-78
2024/04/21 11:58:42;;;;;;;7.60;7.10;;;10.50;99.90;;;;;;5258934;27;20259;-78
2024/04/21 12:01:11;;;;;;;7.70;7.20;;;10.50;99.90;;;;;;5245466;27;20248;-79
2024/04/21 12:03:36;;;;;;;7.73;7.10;;;10.50;99.90;;;;;;5284929;27;20236;-79
2024/04/21 12:06:05;;;;;;;7.87;7.27;;;10.40;99.90;;;;;;5246656;27;20719;-80
2024/04/21 12:08:31;;;;;;;8.07;7.20;;;10.50;99.90;;;;;;5235807;27;20258;-79
2024/04/21 12:11:03;;;;;;;7.57;6.97;;;10.50;99.90;;;;;;5245090;27;20292;-78
2024/04/21 12:13:29;;;;;;;7.53;6.93;;;10.70;99.90;;;;;;5246117;27;20242;-79
2024/04/21 12:15:57;;;;;;;7.57;6.87;;;11.00;99.90;;;;;;5259074;27;20339;-79
2024/04/21 12:18:23;;;;;;;7.20;6.60;;;11.20;99.90;;;;;;5242132;27;20711;-79
2024/04/21 12:20:51;;;;;;;8.00;7.30;;;11.40;99.90;;;;;;5257495;27;20256;-80
2024/04/21 12:23:17;;;;;;;7.70;7.20;;;11.30;99.90;;;;;;5257142;27;20726;-79
2024/04/21 12:25:46;;;;;;;8.13;7.30;;;11.20;99.90;;;;;;5247205;27;20274;-78
2024/04/21 12:28:14;;;;;;;7.73;7.13;;;11.10;99.90;;;;;;5232647;27;20727;-78
2024/04/21 12:30:43;;;;;;;7.90;7.30;;;11.10;99.90;;;;;;5247366;27;20249;-78
2024/04/21 12:33:08;;;;;;;7.90;7.20;;;10.90;99.90;;;;;;5255250;27;20270;-79
2024/04/21 12:35:37;;;;;;;7.27;6.63;;;10.80;99.90;;;;;;5244862;27;20305;-80
2024/04/21 12:38:03;;;;;;;7.50;6.90;;;10.90;99.90;;;;;;5249690;27;20724;-80
2024/04/21 12:40:32;;;;;;;7.73;7.03;;;11.00;99.90;;;;;;5216796;27;932826;-80
2024/04/21 12:42:58;;;;;;;7.00;6.50;;;10.80;99.90;;;;;;5249382;27;20604;-83
2024/04/21 12:45:29;;;;;;;7.37;6.87;;;10.40;99.90;;;;;;5250657;27;20311;-83
2024/04/21 12:47:54;;;;;;;7.83;7.13;;;10.20;99.90;;;;;;5250488;27;20238;-78
2024/04/21 12:50:23;;;;;;;8.60;7.83;;;9.90;99.90;;;;;;5249464;27;20787;-80
2024/04/21 12:52:49;;;;;;;7.83;7.37;;;9.90;99.90;;;;;;5250857;27;20271;-79